Time;durP1;ratioP1;P1;durP2;ratioP2;P2;SDS_P1;SDS_P2;PMS_P1;PMS_P2;Temp;Humidity;BMP_temperature;BMP_pressure;BME280_temperature;BME280_humidity;BME280_pressure;Samples;Min_cycle;Max_cycle;Signal;HPM_P1;HPM_P2
2022/07/29 00:01:43;;;;;;;4.00;1.40;;;16.40;99.40;;;;;;5010503;28;20041;-64
2022/07/29 00:04:08;;;;;;;2.78;1.48;;;16.40;99.40;;;;;;5010712;28;20030;-65
2022/07/29 00:06:34;;;;;;;3.53;1.70;;;16.40;99.50;;;;;;5009982;28;20044;-64
2022/07/29 00:09:00;;;;;;;2.70;1.38;;;16.40;99.60;;;;;;5010304;28;20236;-65
2022/07/29 00:11:25;;;;;;;2.80;1.70;;;16.40;99.60;;;;;;5008192;28;20042;-65
2022/07/29 00:13:51;;;;;;;3.95;1.70;;;16.40;99.70;;;;;;5009733;28;20050;-65
2022/07/29 00:16:16;;;;;;;1.60;1.33;;;16.40;99.70;;;;;;5008763;28;20065;-64
2022/07/29 00:18:42;;;;;;;3.75;1.50;;;16.40;99.80;;;;;;5007385;28;20025;-64
2022/07/29 00:21:08;;;;;;;3.17;1.30;;;16.30;99.90;;;;;;5009295;28;20500;-64
2022/07/29 00:23:33;;;;;;;2.50;1.60;;;16.30;99.90;;;;;;5003685;28;20034;-65
2022/07/29 00:25:59;;;;;;;5.05;1.35;;;16.30;99.90;;;;;;5009249;28;20034;-64
2022/07/29 00:28:27;;;;;;;5.80;1.92;;;16.30;99.90;;;;;;5002523;28;20073;-64
2022/07/29 00:30:53;;;;;;;4.60;1.65;;;16.30;99.90;;;;;;5008528;28;20038;-64
2022/07/29 00:33:19;;;;;;;2.38;1.60;;;16.30;99.90;;;;;;5010311;28;20438;-65
2022/07/29 00:35:44;;;;;;;1.85;1.50;;;16.30;99.90;;;;;;5009233;28;20072;-64
2022/07/29 00:38:15;;;;;;;6.25;1.73;;;16.20;99.90;;;;;;5008510;28;20042;-64
2022/07/29 00:40:41;;;;;;;3.65;1.60;;;16.20;99.90;;;;;;5006988;28;20045;-65
2022/07/29 00:43:07;;;;;;;5.25;2.10;;;16.20;99.90;;;;;;5002312;28;20104;-65
2022/07/29 00:45:33;;;;;;;5.60;1.90;;;16.20;99.90;;;;;;5003366;28;20492;-64
2022/07/29 00:47:59;;;;;;;2.95;1.50;;;16.20;99.90;;;;;;5008167;28;20073;-64
2022/07/29 00:50:25;;;;;;;3.15;1.70;;;16.20;99.90;;;;;;5014910;28;20034;-65
2022/07/29 00:52:52;;;;;;;3.15;1.70;;;16.20;99.90;;;;;;5028386;28;20137;-65
2022/07/29 00:55:21;;;;;;;3.25;1.70;;;16.20;99.90;;;;;;5012467;28;20038;-64
2022/07/29 00:57:46;;;;;;;6.50;2.22;;;16.20;99.90;;;;;;5009022;28;20052;-63
2022/07/29 01:00:17;;;;;;;3.65;1.83;;;16.20;99.90;;;;;;5009521;28;20030;-65
2022/07/29 01:02:43;;;;;;;3.35;1.60;;;16.20;99.90;;;;;;5009263;28;20162;-65
2022/07/29 01:05:10;;;;;;;5.80;1.65;;;16.10;99.90;;;;;;5006371;28;20503;-65
2022/07/29 01:07:37;;;;;;;4.93;2.28;;;16.10;99.90;;;;;;5005059;28;20050;-65
2022/07/29 01:10:04;;;;;;;7.28;1.90;;;16.10;99.90;;;;;;5011965;28;20113;-65
2022/07/29 01:12:33;;;;;;;3.90;1.70;;;16.10;99.90;;;;;;5012402;28;20037;-66
2022/07/29 01:15:00;;;;;;;3.75;1.80;;;16.10;99.90;;;;;;5011044;28;20038;-65
2022/07/29 01:17:46;;;;;;;3.40;1.58;;;16.10;99.90;;;;;;5009408;28;20034;-66
2022/07/29 01:20:31;;;;;;;2.65;1.77;;;16.10;99.90;;;;;;5011365;28;20042;-66
2022/07/29 01:23:32;;;;;;;3.53;1.80;;;16.10;99.90;;;;;;5010421;28;20050;-65
2022/07/29 01:26:23;;;;;;;3.45;1.85;;;16.10;99.90;;;;;;5009099;28;20060;-63
2022/07/29 01:29:07;;;;;;;3.35;1.83;;;16.10;99.90;;;;;;5012993;28;20128;-66
2022/07/29 01:31:40;;;;;;;4.30;2.08;;;16.10;99.90;;;;;;5011431;28;20124;-66
2022/07/29 01:34:09;;;;;;;4.63;2.00;;;16.10;99.90;;;;;;5002463;28;20401;-64
2022/07/29 01:37:01;;;;;;;4.50;1.98;;;16.10;99.90;;;;;;5008200;28;20045;-66
2022/07/29 01:39:31;;;;;;;3.67;2.00;;;16.10;99.90;;;;;;5001696;28;20038;-66
2022/07/29 01:41:59;;;;;;;2.92;1.95;;;16.10;99.90;;;;;;5013147;28;20112;-66
2022/07/29 01:44:35;;;;;;;3.75;1.80;;;16.00;99.90;;;;;;5005994;28;20531;-66
2022/07/29 01:47:07;;;;;;;3.78;1.70;;;16.00;99.90;;;;;;5009780;28;20570;-66
2022/07/29 01:49:38;;;;;;;2.97;1.75;;;16.00;99.90;;;;;;5011517;28;20041;-66
2022/07/29 01:52:11;;;;;;;6.68;2.08;;;16.00;99.90;;;;;;5010226;28;20046;-66
2022/07/29 01:54:45;;;;;;;;;;;16.00;99.90;;;;;;5012249;28;20041;-66
2022/07/29 01:57:14;;;;;;;3.42;1.85;;;16.00;99.90;;;;;;5009511;28;19921;-66
2022/07/29 01:59:43;;;;;;;5.50;1.92;;;16.00;99.90;;;;;;5011702;28;20042;-66
2022/07/29 02:02:10;;;;;;;3.05;1.80;;;16.00;99.90;;;;;;5012455;28;20045;-66
2022/07/29 02:04:38;;;;;;;4.88;1.80;;;16.00;99.90;;;;;;5009956;28;20515;-66
2022/07/29 02:07:06;;;;;;;4.53;2.00;;;16.00;99.90;;;;;;5010883;28;20404;-64
2022/07/29 02:09:36;;;;;;;3.35;1.80;;;16.00;99.90;;;;;;5002350;28;20109;-66
2022/07/29 02:12:04;;;;;;;4.18;1.80;;;16.00;99.90;;;;;;5006100;28;20373;-66
2022/07/29 02:14:34;;;;;;;4.40;2.00;;;16.00;99.90;;;;;;5011753;28;20125;-66
2022/07/29 02:17:01;;;;;;;2.35;1.75;;;16.00;99.90;;;;;;5005365;28;20049;-66
2022/07/29 02:19:29;;;;;;;5.72;2.00;;;16.00;99.90;;;;;;5011783;28;20524;-63
2022/07/29 02:21:57;;;;;;;3.33;1.63;;;16.00;99.90;;;;;;5008294;28;20050;-66
2022/07/29 02:24:28;;;;;;;4.68;2.00;;;15.90;99.90;;;;;;4995051;28;20516;-65
2022/07/29 02:26:56;;;;;;;4.10;1.90;;;15.90;99.90;;;;;;5008584;28;20125;-66
2022/07/29 02:29:24;;;;;;;2.80;1.63;;;15.90;99.90;;;;;;5011852;28;20038;-66
2022/07/29 02:31:52;;;;;;;5.13;2.35;;;15.90;99.90;;;;;;5012583;28;20721;-66
2022/07/29 02:34:20;;;;;;;6.57;2.00;;;15.90;99.90;;;;;;5012019;28;20037;-66
2022/07/29 02:36:48;;;;;;;5.65;2.05;;;15.90;99.90;;;;;;5006935;28;20042;-66
2022/07/29 02:39:15;;;;;;;6.60;2.05;;;15.90;99.90;;;;;;5007841;28;20042;-65
2022/07/29 02:41:48;;;;;;;6.40;1.88;;;15.90;99.90;;;;;;5006542;28;20049;-66
2022/07/29 02:44:21;;;;;;;8.40;2.05;;;15.90;99.90;;;;;;5010437;28;20046;-66
2022/07/29 02:47:12;;;;;;;7.40;1.80;;;15.90;99.90;;;;;;5010366;28;20048;-65
2022/07/29 02:49:54;;;;;;;4.63;1.95;;;15.90;99.90;;;;;;5010460;28;20045;-66
2022/07/29 02:52:27;;;;;;;3.30;1.70;;;15.90;99.90;;;;;;4991796;28;20057;-66
2022/07/29 02:55:01;;;;;;;3.72;1.73;;;15.90;99.90;;;;;;5011619;28;20068;-66
2022/07/29 02:57:40;;;;;;;3.45;1.90;;;15.90;99.90;;;;;;5009915;28;20041;-66
2022/07/29 03:00:08;;;;;;;1.95;1.50;;;15.90;99.90;;;;;;5010279;28;20128;-66
2022/07/29 03:02:38;;;;;;;4.90;2.03;;;15.80;99.90;;;;;;5009631;28;20038;-66
2022/07/29 03:05:06;;;;;;;2.08;1.50;;;15.80;99.90;;;;;;5010306;28;20117;-66
2022/07/29 03:07:33;;;;;;;2.67;1.73;;;15.80;99.90;;;;;;5008030;28;20423;-66
2022/07/29 03:10:00;;;;;;;2.40;1.58;;;15.80;99.90;;;;;;5002941;28;20521;-66
2022/07/29 03:12:26;;;;;;;3.20;1.70;;;15.80;99.90;;;;;;5010942;28;20137;-66
2022/07/29 03:14:53;;;;;;;4.25;1.73;;;15.70;99.90;;;;;;5011675;28;20401;-65
2022/07/29 03:17:20;;;;;;;3.50;1.63;;;15.70;99.90;;;;;;5009011;28;20037;-66
2022/07/29 03:19:47;;;;;;;4.95;1.70;;;15.70;99.90;;;;;;5011229;28;20112;-66
2022/07/29 03:22:13;;;;;;;2.80;1.83;;;15.70;99.90;;;;;;5008616;28;20049;-66
2022/07/29 03:24:39;;;;;;;4.40;1.85;;;15.60;99.90;;;;;;5011348;28;20496;-66
2022/07/29 03:27:05;;;;;;;4.85;2.10;;;15.60;99.90;;;;;;5011261;28;20038;-64
2022/07/29 03:29:31;;;;;;;3.97;1.98;;;15.70;99.90;;;;;;5010131;28;20501;-65
2022/07/29 03:31:57;;;;;;;3.35;1.88;;;15.60;99.90;;;;;;5010989;28;20042;-66
2022/07/29 03:34:25;;;;;;;4.35;1.98;;;15.60;99.90;;;;;;5006484;28;20034;-66
2022/07/29 03:36:51;;;;;;;4.75;1.98;;;15.60;99.90;;;;;;5008688;28;20050;-65
2022/07/29 03:39:21;;;;;;;4.43;1.70;;;15.60;99.90;;;;;;5009530;28;20404;-66
2022/07/29 03:41:49;;;;;;;2.20;1.60;;;15.60;99.90;;;;;;5009939;28;20041;-64
2022/07/29 03:44:17;;;;;;;4.68;1.95;;;15.60;99.90;;;;;;5009459;28;20045;-66
2022/07/29 03:46:44;;;;;;;7.22;2.08;;;15.60;99.90;;;;;;5009754;28;20513;-65
2022/07/29 03:49:12;;;;;;;4.00;2.03;;;15.50;99.90;;;;;;5008785;28;20080;-66
2022/07/29 03:51:38;;;;;;;2.40;1.95;;;15.50;99.90;;;;;;5009403;28;20045;-66
2022/07/29 03:54:05;;;;;;;5.30;2.22;;;15.50;99.90;;;;;;5008866;28;20042;-66
2022/07/29 03:56:34;;;;;;;5.43;2.10;;;15.50;99.90;;;;;;5009212;28;20132;-66
2022/07/29 03:59:02;;;;;;;6.05;2.08;;;15.50;99.90;;;;;;5007525;28;20460;-66
2022/07/29 04:01:29;;;;;;;5.15;2.08;;;15.50;99.90;;;;;;5010775;28;20146;-65
2022/07/29 04:03:55;;;;;;;3.88;1.88;;;15.50;99.90;;;;;;5009743;28;20432;-66
2022/07/29 04:06:21;;;;;;;5.32;2.05;;;15.50;99.90;;;;;;5010894;28;20405;-66
2022/07/29 04:08:46;;;;;;;3.80;1.73;;;15.50;99.90;;;;;;5009881;28;20117;-66
2022/07/29 04:11:13;;;;;;;4.38;1.85;;;15.50;99.90;;;;;;5010405;28;20474;-66
2022/07/29 04:13:38;;;;;;;3.50;1.90;;;15.50;99.90;;;;;;5010523;28;20029;-66
2022/07/29 04:16:04;;;;;;;3.08;1.95;;;15.40;99.90;;;;;;5010328;28;20484;-65
2022/07/29 04:18:30;;;;;;;6.00;1.80;;;15.40;99.90;;;;;;5007790;28;20088;-66
2022/07/29 04:20:55;;;;;;;5.65;1.98;;;15.40;99.90;;;;;;5010422;28;20480;-66
2022/07/29 04:23:21;;;;;;;4.38;2.00;;;15.40;99.90;;;;;;5009572;28;20034;-66
2022/07/29 04:25:47;;;;;;;5.03;1.67;;;15.40;99.90;;;;;;5008498;28;20117;-66
2022/07/29 04:28:12;;;;;;;6.32;2.03;;;15.40;99.90;;;;;;5002467;28;20037;-65
2022/07/29 04:30:38;;;;;;;4.40;2.13;;;15.40;99.90;;;;;;5002219;28;20076;-66
2022/07/29 04:33:06;;;;;;;4.65;1.92;;;15.40;99.90;;;;;;4996036;28;20065;-66
2022/07/29 04:35:35;;;;;;;4.43;1.92;;;15.40;99.90;;;;;;4999015;28;20041;-66
2022/07/29 04:38:01;;;;;;;2.55;1.88;;;15.40;99.90;;;;;;5003241;28;20088;-66
2022/07/29 04:40:27;;;;;;;5.28;2.50;;;15.40;99.90;;;;;;5012450;28;20508;-66
2022/07/29 04:42:53;;;;;;;3.25;1.95;;;15.40;99.90;;;;;;5006979;28;20042;-66
2022/07/29 04:45:19;;;;;;;3.85;1.92;;;15.40;99.90;;;;;;5008821;28;20077;-65
2022/07/29 04:47:44;;;;;;;3.15;1.67;;;15.40;99.90;;;;;;5001462;28;20035;-66
2022/07/29 04:50:10;;;;;;;2.92;1.90;;;15.40;99.90;;;;;;5004682;28;20069;-66
2022/07/29 04:52:36;;;;;;;3.85;1.80;;;15.40;99.90;;;;;;5009630;28;20100;-65
2022/07/29 04:55:03;;;;;;;3.90;1.90;;;15.40;99.90;;;;;;5008799;28;20050;-65
2022/07/29 04:57:29;;;;;;;3.40;1.60;;;15.40;99.90;;;;;;5008346;28;20385;-64
2022/07/29 04:59:54;;;;;;;6.28;1.77;;;15.40;99.90;;;;;;5009879;28;20045;-65
2022/07/29 05:02:21;;;;;;;5.43;2.17;;;15.40;99.90;;;;;;5004294;28;20042;-65
2022/07/29 05:04:47;;;;;;;3.00;1.60;;;15.40;99.90;;;;;;5010076;28;20110;-65
2022/07/29 05:07:13;;;;;;;3.28;1.70;;;15.30;99.90;;;;;;5009467;28;20474;-64
2022/07/29 05:09:39;;;;;;;4.47;1.90;;;15.40;99.90;;;;;;5006732;28;20121;-64
2022/07/29 05:12:06;;;;;;;4.95;1.95;;;15.40;99.90;;;;;;5009478;28;20126;-65
2022/07/29 05:14:32;;;;;;;3.20;1.88;;;15.50;99.90;;;;;;5009832;28;20404;-64
2022/07/29 05:16:57;;;;;;;3.90;1.90;;;15.40;99.90;;;;;;5003439;28;20042;-65
2022/07/29 05:19:23;;;;;;;6.95;2.20;;;15.50;99.90;;;;;;5009167;28;20030;-65
2022/07/29 05:21:49;;;;;;;5.25;2.10;;;15.50;99.90;;;;;;5009783;28;20042;-65
2022/07/29 05:24:14;;;;;;;6.68;1.80;;;15.50;99.90;;;;;;5009380;28;20038;-65
2022/07/29 05:26:40;;;;;;;3.78;1.90;;;15.50;99.90;;;;;;5008406;28;20049;-64
2022/07/29 05:29:06;;;;;;;4.53;1.88;;;15.50;99.90;;;;;;5007119;28;20062;-64
2022/07/29 05:31:33;;;;;;;4.63;2.00;;;15.60;99.90;;;;;;5002509;28;20133;-65
2022/07/29 05:33:58;;;;;;;6.40;2.25;;;15.60;99.90;;;;;;5003933;28;20497;-64
2022/07/29 05:36:27;;;;;;;5.05;1.90;;;15.60;99.90;;;;;;5013430;28;20175;-64
2022/07/29 05:38:52;;;;;;;6.55;1.90;;;15.60;99.90;;;;;;5011938;28;20046;-64
2022/07/29 05:41:19;;;;;;;3.80;1.70;;;15.60;99.90;;;;;;5011813;28;20057;-65
2022/07/29 05:43:44;;;;;;;3.70;2.00;;;15.60;99.90;;;;;;5010486;28;20119;-64
2022/07/29 05:46:10;;;;;;;3.38;1.60;;;15.60;99.90;;;;;;5011161;28;20105;-64
2022/07/29 05:48:36;;;;;;;4.30;1.80;;;15.70;99.90;;;;;;5011247;28;20044;-65
2022/07/29 05:51:02;;;;;;;5.13;2.10;;;15.70;99.90;;;;;;5011624;28;20052;-65
2022/07/29 05:53:27;;;;;;;3.40;2.13;;;15.70;99.90;;;;;;5010914;28;20069;-65
2022/07/29 05:55:53;;;;;;;3.28;2.00;;;15.70;99.90;;;;;;5006507;28;20042;-65
2022/07/29 05:58:19;;;;;;;3.53;1.80;;;15.70;99.90;;;;;;5010415;28;20022;-65
2022/07/29 06:00:45;;;;;;;7.57;2.00;;;15.80;99.90;;;;;;5009749;28;20132;-64
2022/07/29 06:03:12;;;;;;;5.38;2.20;;;15.80;99.90;;;;;;5004204;28;20049;-65
2022/07/29 06:05:37;;;;;;;4.95;2.20;;;15.90;99.90;;;;;;5009613;28;20048;-65
2022/07/29 06:08:05;;;;;;;3.30;1.90;;;15.90;99.90;;;;;;5005646;28;20038;-64
2022/07/29 06:10:31;;;;;;;3.15;1.88;;;15.90;99.90;;;;;;5012855;28;20045;-64
2022/07/29 06:12:56;;;;;;;4.43;2.00;;;15.90;99.90;;;;;;5006520;28;20056;-65
2022/07/29 06:15:22;;;;;;;6.10;1.85;;;15.90;99.90;;;;;;5004195;28;20033;-65
2022/07/29 06:17:48;;;;;;;4.72;2.08;;;16.00;99.90;;;;;;5009549;28;20085;-65
2022/07/29 06:20:13;;;;;;;7.32;2.22;;;16.00;99.90;;;;;;5012456;28;20042;-65
2022/07/29 06:22:39;;;;;;;3.70;1.88;;;16.00;99.90;;;;;;5012405;28;20084;-64
2022/07/29 06:25:05;;;;;;;5.68;2.10;;;16.00;99.90;;;;;;5012513;28;20066;-65
2022/07/29 06:27:31;;;;;;;4.68;2.08;;;16.00;99.90;;;;;;5008101;28;20128;-65
2022/07/29 06:29:56;;;;;;;3.83;2.65;;;15.90;99.90;;;;;;5007809;28;20137;-65
2022/07/29 06:32:22;;;;;;;4.88;2.13;;;15.90;99.90;;;;;;5011514;28;20080;-64
2022/07/29 06:34:48;;;;;;;4.78;2.20;;;15.90;99.90;;;;;;5010778;28;20037;-65
2022/07/29 06:37:14;;;;;;;4.32;2.22;;;15.90;99.90;;;;;;5012184;28;20034;-64
2022/07/29 06:39:40;;;;;;;3.55;2.15;;;16.00;99.90;;;;;;5011776;28;20405;-65
2022/07/29 06:42:06;;;;;;;3.88;1.98;;;15.90;99.90;;;;;;5009016;28;20040;-64
2022/07/29 06:44:33;;;;;;;5.63;2.13;;;15.90;99.90;;;;;;4994500;28;20056;-65
2022/07/29 06:47:00;;;;;;;5.28;2.05;;;15.90;99.90;;;;;;5011133;28;20052;-65
2022/07/29 06:49:26;;;;;;;2.53;1.92;;;15.90;99.90;;;;;;5009213;28;20046;-65
2022/07/29 06:51:52;;;;;;;4.95;2.03;;;15.90;99.90;;;;;;5009427;28;20056;-65
2022/07/29 06:54:18;;;;;;;4.65;2.25;;;15.90;99.90;;;;;;5011834;28;20045;-65
2022/07/29 06:56:43;;;;;;;4.55;1.80;;;15.90;99.90;;;;;;5003179;28;20042;-65
2022/07/29 06:59:11;;;;;;;5.43;2.05;;;15.90;99.90;;;;;;5007163;28;20065;-64
2022/07/29 07:01:38;;;;;;;5.50;2.45;;;15.90;99.90;;;;;;5009342;28;20044;-64
2022/07/29 07:04:04;;;;;;;3.92;2.20;;;16.00;99.90;;;;;;5009328;28;20042;-65
2022/07/29 07:06:30;;;;;;;2.75;1.95;;;16.00;99.90;;;;;;5007203;28;20088;-65
2022/07/29 07:08:55;;;;;;;3.67;2.17;;;16.00;99.90;;;;;;5000279;28;20030;-65
2022/07/29 07:11:21;;;;;;;5.50;2.17;;;16.10;99.90;;;;;;5005462;28;20053;-64
2022/07/29 07:13:47;;;;;;;4.88;2.03;;;16.10;99.90;;;;;;5005337;28;20030;-65
2022/07/29 07:16:12;;;;;;;4.97;2.10;;;16.20;99.90;;;;;;5009002;28;20033;-65
2022/07/29 07:18:38;;;;;;;5.80;2.30;;;16.20;99.90;;;;;;5010897;28;20037;-65
2022/07/29 07:21:05;;;;;;;6.07;2.35;;;16.30;99.90;;;;;;5010151;28;20122;-65
2022/07/29 07:23:31;;;;;;;5.65;2.10;;;16.30;99.90;;;;;;5011316;28;20294;-65
2022/07/29 07:25:56;;;;;;;4.85;2.40;;;16.30;99.90;;;;;;5009238;28;20489;-64
2022/07/29 07:28:22;;;;;;;5.85;2.30;;;16.40;99.90;;;;;;5010614;28;20026;-65
2022/07/29 07:30:48;;;;;;;5.80;2.35;;;16.40;99.90;;;;;;5010137;28;20052;-65
2022/07/29 07:33:14;;;;;;;6.32;2.70;;;16.50;99.90;;;;;;5011027;28;20038;-65
2022/07/29 07:35:40;;;;;;;6.55;2.00;;;16.50;99.90;;;;;;5010017;28;20056;-65
2022/07/29 07:38:06;;;;;;;5.05;2.10;;;16.50;99.90;;;;;;5010119;28;20065;-65
2022/07/29 07:40:32;;;;;;;4.57;2.60;;;16.60;99.90;;;;;;5009239;28;20062;-64
2022/07/29 07:42:57;;;;;;;5.78;2.08;;;16.60;99.90;;;;;;5009418;28;20125;-65
2022/07/29 07:45:23;;;;;;;7.05;2.10;;;16.60;99.90;;;;;;5002991;28;20040;-65
2022/07/29 07:47:49;;;;;;;4.88;2.40;;;16.70;99.90;;;;;;5009555;28;20045;-65
2022/07/29 07:50:17;;;;;;;6.05;2.50;;;16.70;99.90;;;;;;5010707;28;20105;-65
2022/07/29 07:52:47;;;;;;;3.83;2.10;;;16.60;99.90;;;;;;5008367;28;20057;-65
2022/07/29 07:55:13;;;;;;;5.75;2.05;;;16.70;99.90;;;;;;5002769;28;20044;-65
2022/07/29 07:57:39;;;;;;;4.35;2.30;;;16.70;99.90;;;;;;5005734;28;20392;-65
2022/07/29 08:00:05;;;;;;;4.10;2.30;;;16.60;99.90;;;;;;5009878;28;20033;-64
2022/07/29 08:02:32;;;;;;;4.20;2.30;;;16.70;99.90;;;;;;4994733;28;20068;-65
2022/07/29 08:04:59;;;;;;;4.28;2.20;;;16.60;99.90;;;;;;5009439;28;20051;-65
2022/07/29 08:07:25;;;;;;;4.80;2.30;;;16.60;99.90;;;;;;4998072;28;20492;-65
2022/07/29 08:09:50;;;;;;;7.03;2.50;;;16.60;99.90;;;;;;5007637;28;20099;-65
2022/07/29 08:12:16;;;;;;;7.05;2.20;;;16.60;99.90;;;;;;4992667;28;20048;-64
2022/07/29 08:14:41;;;;;;;4.22;2.20;;;16.50;99.90;;;;;;5003467;28;20050;-64
2022/07/29 08:17:07;;;;;;;5.65;2.30;;;16.50;99.90;;;;;;5009416;28;20393;-64
2022/07/29 08:19:33;;;;;;;5.22;2.20;;;16.60;99.90;;;;;;5008636;28;20034;-65
2022/07/29 08:21:59;;;;;;;6.07;2.22;;;16.60;99.90;;;;;;5009045;28;20042;-64
2022/07/29 08:24:42;;;;;;;6.90;2.25;;;16.60;99.90;;;;;;5008995;28;20044;-64
2022/07/29 08:27:10;;;;;;;3.75;2.50;;;16.60;99.90;;;;;;5010641;28;20088;-65
2022/07/29 08:29:36;;;;;;;4.47;2.35;;;16.60;99.90;;;;;;5007689;28;20041;-64
2022/07/29 08:32:02;;;;;;;5.50;2.47;;;16.70;99.90;;;;;;4995106;28;20046;-64
2022/07/29 08:34:28;;;;;;;4.97;2.42;;;16.80;99.90;;;;;;5009096;28;20042;-64
2022/07/29 08:36:55;;;;;;;6.10;2.60;;;16.80;99.90;;;;;;5009013;28;20037;-64
2022/07/29 08:39:21;;;;;;;5.90;2.40;;;16.90;99.90;;;;;;4998316;28;20040;-64
2022/07/29 08:41:47;;;;;;;5.90;2.40;;;16.90;99.90;;;;;;4999553;28;20046;-65
2022/07/29 08:44:21;;;;;;;5.25;2.50;;;17.00;99.90;;;;;;5007383;28;20219;-65
2022/07/29 08:46:49;;;;;;;4.13;2.20;;;17.10;99.90;;;;;;5005258;28;20053;-65
2022/07/29 08:49:15;;;;;;;4.10;2.15;;;17.10;99.90;;;;;;5016827;28;20046;-65
2022/07/29 08:51:42;;;;;;;5.13;2.60;;;17.20;99.90;;;;;;5005214;28;20066;-65
2022/07/29 08:54:10;;;;;;;6.10;2.60;;;17.30;99.90;;;;;;5007531;28;20050;-65
2022/07/29 08:56:36;;;;;;;5.25;2.45;;;17.40;99.90;;;;;;5008135;28;20042;-65
2022/07/29 08:59:06;;;;;;;4.97;2.63;;;17.40;99.90;;;;;;4989119;28;20392;-65
2022/07/29 09:01:36;;;;;;;4.20;2.47;;;17.50;99.90;;;;;;5003105;28;20049;-65
2022/07/29 09:04:05;;;;;;;4.70;2.60;;;17.50;99.90;;;;;;5007602;28;20052;-65
2022/07/29 09:06:36;;;;;;;6.93;2.60;;;17.60;99.90;;;;;;5005537;28;20046;-65
2022/07/29 09:09:03;;;;;;;5.43;2.25;;;17.60;99.90;;;;;;5009174;28;20400;-64
2022/07/29 09:11:31;;;;;;;4.10;2.20;;;17.70;99.90;;;;;;5011480;28;20056;-65
2022/07/29 09:13:57;;;;;;;5.68;2.38;;;17.70;99.90;;;;;;5011425;28;20108;-65
2022/07/29 09:16:23;;;;;;;6.55;2.60;;;17.70;99.90;;;;;;5010212;28;20525;-65
2022/07/29 09:18:48;;;;;;;3.20;2.22;;;17.70;99.90;;;;;;5012271;28;20034;-65
2022/07/29 09:24:14;;;;;;;5.25;2.10;;;17.70;99.90;;;;;;5010835;28;20041;-65
2022/07/29 09:26:44;;;;;;;2.92;1.88;;;17.80;99.90;;;;;;5009010;28;20080;-65
2022/07/29 09:29:18;;;;;;;6.40;2.45;;;17.80;99.90;;;;;;5009420;28;20180;-65
2022/07/29 09:31:49;;;;;;;4.38;2.50;;;17.80;99.90;;;;;;5006793;28;20437;-65
2022/07/29 09:34:20;;;;;;;4.20;2.25;;;17.80;99.90;;;;;;5009891;28;20033;-65
2022/07/29 09:36:48;;;;;;;4.20;2.45;;;17.90;99.90;;;;;;5007974;28;20077;-65
2022/07/29 09:39:25;;;;;;;6.20;2.03;;;17.90;99.90;;;;;;5011069;28;20044;-65
2022/07/29 09:41:55;;;;;;;5.47;2.33;;;17.90;99.90;;;;;;5008607;28;20099;-65
2022/07/29 09:44:22;;;;;;;3.47;2.40;;;18.00;99.90;;;;;;5010236;28;20072;-65
2022/07/29 09:47:06;;;;;;;4.72;2.38;;;18.00;99.90;;;;;;5005923;28;20038;-65
2022/07/29 09:49:33;;;;;;;3.60;2.40;;;18.10;99.90;;;;;;5009183;28;20414;-65
2022/07/29 09:52:03;;;;;;;5.30;2.50;;;18.20;99.90;;;;;;5009005;28;20432;-65
2022/07/29 09:54:34;;;;;;;5.57;2.60;;;18.20;99.90;;;;;;5011606;28;20121;-65
2022/07/29 09:56:59;;;;;;;5.15;2.58;;;18.30;99.90;;;;;;5010248;28;20393;-65
2022/07/29 09:59:26;;;;;;;6.82;2.30;;;18.40;99.90;;;;;;5009861;28;20037;-64
2022/07/29 10:01:52;;;;;;;4.50;2.63;;;18.50;99.90;;;;;;5008279;28;20050;-65
2022/07/29 10:04:19;;;;;;;4.65;2.25;;;18.60;99.90;;;;;;5009658;28;21023;-65
2022/07/29 10:07:01;;;;;;;6.55;2.33;;;18.70;99.90;;;;;;5009383;28;20103;-65
2022/07/29 10:09:28;;;;;;;5.68;2.53;;;18.90;99.90;;;;;;5007293;28;20034;-65
2022/07/29 10:12:10;;;;;;;6.10;2.33;;;19.10;99.90;;;;;;5011422;28;20100;-65
2022/07/29 10:14:38;;;;;;;7.20;2.40;;;19.40;99.90;;;;;;5011117;28;20038;-65
2022/07/29 10:17:05;;;;;;;5.47;2.55;;;19.50;99.90;;;;;;5012000;28;20125;-65
2022/07/29 10:19:32;;;;;;;5.00;2.35;;;19.50;99.90;;;;;;5009764;28;20405;-66
2022/07/29 10:22:00;;;;;;;5.97;2.40;;;19.60;99.90;;;;;;5011395;28;20125;-65
2022/07/29 10:24:31;;;;;;;3.25;2.33;;;19.70;99.90;;;;;;5009089;28;20053;-66
2022/07/29 10:26:58;;;;;;;4.88;2.10;;;19.70;99.90;;;;;;5009476;28;20096;-65
2022/07/29 10:29:24;;;;;;;5.80;2.10;;;19.80;99.90;;;;;;5006057;28;20500;-65
2022/07/29 10:32:19;;;;;;;4.50;2.60;;;19.90;99.90;;;;;;5010659;28;20053;-65
2022/07/29 10:35:21;;;;;;;4.45;2.15;;;20.00;99.90;;;;;;5010060;28;20113;-65
2022/07/29 10:37:55;;;;;;;5.13;2.92;;;20.00;99.90;;;;;;5007673;28;20527;-65
2022/07/29 10:43:46;;;;;;;6.57;2.47;;;20.20;99.90;;;;;;5003554;28;20516;-67
2022/07/29 10:46:12;;;;;;;4.25;2.22;;;20.30;99.90;;;;;;5005985;28;20038;-67
2022/07/29 10:49:24;;;;;;;5.78;2.13;;;20.40;99.90;;;;;;5001658;28;20172;-67
2022/07/29 10:51:50;;;;;;;;;;;20.70;99.90;;;;;;5004348;28;20573;-67
2022/07/29 10:54:17;;;;;;;5.50;2.40;;;21.20;99.90;;;;;;5002867;28;20004;-67
2022/07/29 10:56:42;;;;;;;5.78;2.45;;;21.40;99.90;;;;;;5007332;28;20049;-67
2022/07/29 10:59:20;;;;;;;5.47;2.35;;;21.30;99.90;;;;;;5004703;28;20041;-67
2022/07/29 11:01:50;;;;;;;6.97;2.22;;;21.30;99.70;;;;;;5005481;28;20046;-67
2022/07/29 11:04:45;;;;;;;5.63;2.50;;;21.40;99.90;;;;;;5009271;28;20041;-67
2022/07/29 11:07:12;;;;;;;6.35;2.72;;;21.60;99.50;;;;;;5005201;28;20484;-67
2022/07/29 11:09:38;;;;;;;4.03;2.35;;;21.50;99.60;;;;;;5008638;28;20042;-67
2022/07/29 11:12:23;;;;;;;4.72;2.35;;;21.50;99.50;;;;;;5008181;28;20060;-67
2022/07/29 11:14:51;;;;;;;6.10;2.50;;;21.50;99.50;;;;;;5003522;28;20515;-67
2022/07/29 11:17:17;;;;;;;7.00;2.22;;;21.60;99.50;;;;;;5006133;28;20050;-67
2022/07/29 11:19:44;;;;;;;5.15;2.60;;;21.50;99.60;;;;;;5008858;28;20052;-67
2022/07/29 11:22:11;;;;;;;5.65;2.20;;;21.60;99.60;;;;;;5009429;28;20046;-64
2022/07/29 11:24:37;;;;;;;5.82;2.67;;;21.60;99.60;;;;;;5009138;28;20432;-67
2022/07/29 11:27:07;;;;;;;3.63;2.33;;;21.60;99.50;;;;;;5009408;28;20054;-67
2022/07/29 11:29:38;;;;;;;5.10;2.45;;;21.70;99.30;;;;;;5009313;28;20037;-67
2022/07/29 11:32:15;;;;;;;6.95;2.10;;;21.70;99.30;;;;;;5009376;28;20050;-67
2022/07/29 11:34:42;;;;;;;5.38;2.40;;;21.80;99.10;;;;;;5008121;28;20192;-67
2022/07/29 11:37:13;;;;;;;4.85;2.50;;;21.90;99.40;;;;;;5001813;28;20033;-68
2022/07/29 11:39:43;;;;;;;;;;;22.20;99.30;;;;;;5007928;28;20058;-67
2022/07/29 11:42:21;;;;;;;4.88;2.40;;;22.30;98.50;;;;;;5009809;28;20291;-67
2022/07/29 11:45:10;;;;;;;7.25;2.50;;;22.50;98.50;;;;;;5009671;28;20499;-66
2022/07/29 11:47:36;;;;;;;5.28;2.30;;;22.50;98.10;;;;;;5001695;28;20408;-67
2022/07/29 11:50:04;;;;;;;3.90;2.40;;;22.50;98.20;;;;;;5008326;28;20033;-64
2022/07/29 11:52:42;;;;;;;4.65;2.50;;;22.60;98.00;;;;;;5008143;28;20057;-67
2022/07/29 11:55:10;;;;;;;6.75;2.50;;;22.50;97.70;;;;;;5008555;28;20253;-67
2022/07/29 11:57:36;;;;;;;5.07;2.22;;;22.50;97.70;;;;;;5006317;28;20408;-67
2022/07/29 12:00:08;;;;;;;6.13;2.40;;;22.50;97.80;;;;;;5005738;28;20030;-67
2022/07/29 12:02:43;;;;;;;7.65;2.30;;;22.50;97.50;;;;;;5007049;28;20041;-67
2022/07/29 12:05:13;;;;;;;5.03;2.47;;;22.60;97.10;;;;;;5007645;28;20042;-65
2022/07/29 12:07:39;;;;;;;4.97;2.20;;;22.60;97.30;;;;;;5006784;28;20044;-67
2022/07/29 12:10:06;;;;;;;4.00;2.53;;;22.60;97.00;;;;;;5008401;28;20066;-65
2022/07/29 12:12:32;;;;;;;5.43;2.50;;;22.50;96.80;;;;;;5005302;28;20104;-67
2022/07/29 12:15:09;;;;;;;6.45;2.60;;;22.50;96.80;;;;;;5007447;28;20045;-67
2022/07/29 12:17:35;;;;;;;6.75;2.75;;;22.40;96.90;;;;;;5001607;28;20046;-64
2022/07/29 12:20:03;;;;;;;4.85;2.78;;;22.30;97.00;;;;;;5008642;28;20053;-67
2022/07/29 12:22:36;;;;;;;3.22;2.20;;;22.30;97.20;;;;;;5008032;28;20072;-67
2022/07/29 12:25:05;;;;;;;6.90;2.75;;;22.20;97.20;;;;;;5005895;28;20049;-67
2022/07/29 12:27:31;;;;;;;6.28;2.40;;;22.20;97.30;;;;;;5010048;28;20404;-64
2022/07/29 12:29:59;;;;;;;3.53;2.25;;;22.20;97.30;;;;;;5007643;28;20042;-67
2022/07/29 12:32:34;;;;;;;7.15;2.78;;;22.20;97.40;;;;;;5008612;28;20033;-67
2022/07/29 12:35:07;;;;;;;4.63;2.40;;;22.20;97.00;;;;;;4995026;28;20506;-67
2022/07/29 12:37:35;;;;;;;4.88;2.45;;;22.30;97.20;;;;;;5005563;28;20092;-67
2022/07/29 12:40:01;;;;;;;6.80;2.50;;;22.20;97.10;;;;;;5008287;28;20042;-67
2022/07/29 12:42:27;;;;;;;6.40;2.17;;;22.30;97.10;;;;;;5005131;28;20485;-67
2022/07/29 12:44:55;;;;;;;6.07;2.20;;;22.30;97.30;;;;;;4994561;28;20143;-67
2022/07/29 12:47:22;;;;;;;5.38;2.40;;;22.40;97.40;;;;;;5013251;28;20038;-66
2022/07/29 12:49:48;;;;;;;4.97;2.63;;;22.40;97.40;;;;;;5012126;28;20056;-67
2022/07/29 12:52:32;;;;;;;8.00;2.33;;;22.40;97.30;;;;;;5012227;28;20053;-66
2022/07/29 12:54:58;;;;;;;9.07;2.97;;;22.50;97.00;;;;;;5009121;28;20381;-67
2022/07/29 12:57:24;;;;;;;7.03;2.60;;;22.60;97.20;;;;;;5011909;28;20079;-67
2022/07/29 13:00:10;;;;;;;4.72;2.50;;;22.70;97.20;;;;;;5012259;28;20445;-67
2022/07/29 13:02:36;;;;;;;6.93;2.83;;;22.90;97.50;;;;;;5011847;28;20046;-67